sensor_id;sensor_type;location;lat;lon;timestamp;pressure;altitude;pressure_sealevel;temperature;humidity
61472;BME280;47337;54.068;12.114;2022-11-20T00:01:14;100599.38;;;2.71;100.00
61472;BME280;47337;54.068;12.114;2022-11-20T00:03:40;100600.78;;;2.85;100.00
61472;BME280;47337;54.068;12.114;2022-11-20T00:06:09;100599.31;;;2.92;100.00
61472;BME280;47337;54.068;12.114;2022-11-20T00:08:35;100601.13;;;2.94;100.00
61472;BME280;47337;54.068;12.114;2022-11-20T00:11:15;100594.19;;;2.93;100.00
61472;BME280;47337;54.068;12.114;2022-11-20T00:13:41;100593.53;;;2.99;100.00
61472;BME280;47337;54.068;12.114;2022-11-20T00:16:09;100578.22;;;3.05;100.00
61472;BME280;47337;54.068;12.114;2022-11-20T00:18:40;100572.84;;;3.01;100.00
61472;BME280;47337;54.068;12.114;2022-11-20T00:21:10;100565.50;;;3.13;100.00
61472;BME280;47337;54.068;12.114;2022-11-20T00:23:39;100563.53;;;3.06;100.00
61472;BME280;47337;54.068;12.114;2022-11-20T00:26:06;100563.09;;;2.93;100.00
61472;BME280;47337;54.068;12.114;2022-11-20T00:28:33;100568.38;;;2.97;100.00
61472;BME280;47337;54.068;12.114;2022-11-20T00:31:09;100560.38;;;2.90;100.00
61472;BME280;47337;54.068;12.114;2022-11-20T00:33:34;100559.31;;;2.85;100.00
61472;BME280;47337;54.068;12.114;2022-11-20T00:36:03;100560.84;;;2.80;100.00
61472;BME280;47337;54.068;12.114;2022-11-20T00:38:32;100567.13;;;2.87;100.00
61472;BME280;47337;54.068;12.114;2022-11-20T00:41:02;100567.91;;;2.84;100.00
61472;BME280;47337;54.068;12.114;2022-11-20T00:43:28;100563.78;;;2.89;100.00
61472;BME280;47337;54.068;12.114;2022-11-20T00:45:58;100566.38;;;2.89;100.00
61472;BME280;47337;54.068;12.114;2022-11-20T00:48:24;100567.25;;;2.90;100.00
61472;BME280;47337;54.068;12.114;2022-11-20T00:50:50;100552.72;;;2.93;100.00
61472;BME280;47337;54.068;12.114;2022-11-20T00:53:15;100557.16;;;2.98;100.00
61472;BME280;47337;54.068;12.114;2022-11-20T00:55:43;100554.56;;;2.98;100.00
61472;BME280;47337;54.068;12.114;2022-11-20T00:58:20;100558.66;;;2.91;100.00
61472;BME280;47337;54.068;12.114;2022-11-20T01:00:45;100565.47;;;2.89;100.00
61472;BME280;47337;54.068;12.114;2022-11-20T01:03:14;100568.69;;;2.82;100.00
61472;BME280;47337;54.068;12.114;2022-11-20T01:05:40;100573.63;;;2.76;100.00
61472;BME280;47337;54.068;12.114;2022-11-20T01:08:10;100571.09;;;2.77;100.00
61472;BME280;47337;54.068;12.114;2022-11-20T01:10:36;100580.75;;;2.81;100.00
61472;BME280;47337;54.068;12.114;2022-11-20T01:13:01;100580.28;;;2.91;100.00
61472;BME280;47337;54.068;12.114;2022-11-20T01:15:45;100578.22;;;2.83;100.00
61472;BME280;47337;54.068;12.114;2022-11-20T01:18:10;100572.84;;;2.78;100.00
61472;BME280;47337;54.068;12.114;2022-11-20T01:20:36;100580.47;;;2.74;100.00
61472;BME280;47337;54.068;12.114;2022-11-20T01:23:05;100583.34;;;2.81;100.00
61472;BME280;47337;54.068;12.114;2022-11-20T01:25:34;100584.78;;;2.73;100.00
61472;BME280;47337;54.068;12.114;2022-11-20T01:27:59;100589.06;;;2.73;100.00
61472;BME280;47337;54.068;12.114;2022-11-20T01:30:28;100589.00;;;2.71;100.00
61472;BME280;47337;54.068;12.114;2022-11-20T01:32:55;100591.31;;;2.64;100.00
61472;BME280;47337;54.068;12.114;2022-11-20T01:35:22;100594.78;;;2.64;100.00
61472;BME280;47337;54.068;12.114;2022-11-20T01:37:49;100599.97;;;2.64;100.00
61472;BME280;47337;54.068;12.114;2022-11-20T01:40:15;100598.19;;;2.63;100.00
61472;BME280;47337;54.068;12.114;2022-11-20T01:42:46;100593.41;;;2.51;100.00
61472;BME280;47337;54.068;12.114;2022-11-20T01:48:50;100592.53;;;2.51;100.00
61472;BME280;47337;54.068;12.114;2022-11-20T01:54:04;100590.88;;;2.53;100.00
61472;BME280;47337;54.068;12.114;2022-11-20T01:56:35;100588.84;;;2.46;100.00
61472;BME280;47337;54.068;12.114;2022-11-20T01:59:04;100594.03;;;2.46;100.00
61472;BME280;47337;54.068;12.114;2022-11-20T02:01:31;100594.03;;;2.46;100.00
61472;BME280;47337;54.068;12.114;2022-11-20T02:03:59;100586.84;;;2.39;100.00
61472;BME280;47337;54.068;12.114;2022-11-20T02:06:39;100585.75;;;2.32;100.00
61472;BME280;47337;54.068;12.114;2022-11-20T02:09:05;100586.56;;;2.31;100.00
61472;BME280;47337;54.068;12.114;2022-11-20T02:11:31;100579.69;;;2.32;100.00
61472;BME280;47337;54.068;12.114;2022-11-20T02:13:57;100583.91;;;2.30;100.00
61472;BME280;47337;54.068;12.114;2022-11-20T02:16:25;100585.47;;;2.26;100.00
61472;BME280;47337;54.068;12.114;2022-11-20T02:18:52;100586.13;;;2.20;100.00
61472;BME280;47337;54.068;12.114;2022-11-20T02:21:39;100580.81;;;2.17;100.00
61472;BME280;47337;54.068;12.114;2022-11-20T02:26:44;100572.41;;;2.02;100.00
61472;BME280;47337;54.068;12.114;2022-11-20T02:29:11;100572.31;;;1.99;100.00
61472;BME280;47337;54.068;12.114;2022-11-20T02:31:41;100582.66;;;1.99;100.00
61472;BME280;47337;54.068;12.114;2022-11-20T02:34:07;100580.75;;;1.95;100.00
61472;BME280;47337;54.068;12.114;2022-11-20T02:36:35;100574.47;;;1.89;100.00
61472;BME280;47337;54.068;12.114;2022-11-20T02:39:04;100571.81;;;1.87;100.00
61472;BME280;47337;54.068;12.114;2022-11-20T02:41:34;100571.81;;;1.87;100.00
61472;BME280;47337;54.068;12.114;2022-11-20T02:44:00;100582.97;;;1.86;100.00
61472;BME280;47337;54.068;12.114;2022-11-20T02:46:25;100586.63;;;1.91;100.00
61472;BME280;47337;54.068;12.114;2022-11-20T02:48:53;100578.16;;;1.95;100.00
61472;BME280;47337;54.068;12.114;2022-11-20T02:51:20;100583.34;;;1.95;100.00
61472;BME280;47337;54.068;12.114;2022-11-20T02:53:46;100582.72;;;2.01;100.00
61472;BME280;47337;54.068;12.114;2022-11-20T02:56:11;100579.13;;;1.97;100.00
61472;BME280;47337;54.068;12.114;2022-11-20T02:58:37;100585.25;;;1.99;100.00
61472;BME280;47337;54.068;12.114;2022-11-20T03:01:02;100582.91;;;2.05;100.00
61472;BME280;47337;54.068;12.114;2022-11-20T03:03:28;100575.50;;;1.94;100.00
61472;BME280;47337;54.068;12.114;2022-11-20T03:05:58;100577.34;;;1.96;100.00
61472;BME280;47337;54.068;12.114;2022-11-20T03:08:26;100576.53;;;1.97;100.00
61472;BME280;47337;54.068;12.114;2022-11-20T03:10:54;100586.00;;;1.97;100.00
61472;BME280;47337;54.068;12.114;2022-11-20T03:13:19;100583.34;;;1.95;100.00
61472;BME280;47337;54.068;12.114;2022-11-20T03:15:44;100581.44;;;1.91;100.00
61472;BME280;47337;54.068;12.114;2022-11-20T03:18:10;100574.53;;;1.90;100.00
61472;BME280;47337;54.068;12.114;2022-11-20T03:20:35;100577.28;;;1.95;100.00
61472;BME280;47337;54.068;12.114;2022-11-20T03:23:03;100574.53;;;1.90;100.00
61472;BME280;47337;54.068;12.114;2022-11-20T03:25:31;100576.41;;;1.94;100.00
61472;BME280;47337;54.068;12.114;2022-11-20T03:27:57;100576.16;;;1.88;100.00
61472;BME280;47337;54.068;12.114;2022-11-20T03:30:22;100576.03;;;1.85;100.00
61472;BME280;47337;54.068;12.114;2022-11-20T03:32:47;100567.56;;;1.89;100.00
61472;BME280;47337;54.068;12.114;2022-11-20T03:35:15;100576.97;;;1.87;100.00
61472;BME280;47337;54.068;12.114;2022-11-20T03:37:40;100571.34;;;1.97;100.00
61472;BME280;47337;54.068;12.114;2022-11-20T03:40:09;100567.56;;;1.89;100.00
61472;BME280;47337;54.068;12.114;2022-11-20T03:42:35;100556.34;;;1.89;100.00
61472;BME280;47337;54.068;12.114;2022-11-20T03:45:20;100565.75;;;1.87;100.00
61472;BME280;47337;54.068;12.114;2022-11-20T03:47:46;100556.13;;;1.84;100.00
61472;BME280;47337;54.068;12.114;2022-11-20T03:50:12;100555.13;;;1.80;100.00
61472;BME280;47337;54.068;12.114;2022-11-20T03:52:40;100549.63;;;1.73;100.00
61472;BME280;47337;54.068;12.114;2022-11-20T03:55:06;100555.75;;;1.75;100.00
61472;BME280;47337;54.068;12.114;2022-11-20T03:57:36;100558.34;;;1.75;100.00
61472;BME280;47337;54.068;12.114;2022-11-20T04:00:05;100561.59;;;1.71;100.00
61472;BME280;47337;54.068;12.114;2022-11-20T04:02:31;100555.69;;;1.73;100.00
61472;BME280;47337;54.068;12.114;2022-11-20T04:04:58;100560.06;;;1.74;100.00
61472;BME280;47337;54.068;12.114;2022-11-20T04:07:24;100568.94;;;1.81;100.00
61472;BME280;47337;54.068;12.114;2022-11-20T04:09:49;100568.94;;;1.81;100.00
61472;BME280;47337;54.068;12.114;2022-11-20T04:12:14;100566.91;;;1.74;100.00
61472;BME280;47337;54.068;12.114;2022-11-20T04:14:42;100564.09;;;1.68;100.00
61472;BME280;47337;54.068;12.114;2022-11-20T04:17:12;100554.81;;;1.73;100.00
61472;BME280;47337;54.068;12.114;2022-11-20T04:19:42;100560.94;;;1.75;100.00
61472;BME280;47337;54.068;12.114;2022-11-20T04:22:07;100555.69;;;1.73;100.00
61472;BME280;47337;54.068;12.114;2022-11-20T04:24:33;100561.31;;;1.63;100.00
61472;BME280;47337;54.068;12.114;2022-11-20T04:27:01;100560.28;;;1.60;100.00
61472;BME280;47337;54.068;12.114;2022-11-20T04:29:26;100560.84;;;1.53;100.00
61472;BME280;47337;54.068;12.114;2022-11-20T04:31:54;100557.06;;;1.44;100.00
61472;BME280;47337;54.068;12.114;2022-11-20T04:34:20;100556.16;;;1.44;100.00
61472;BME280;47337;54.068;12.114;2022-11-20T04:36:45;100552.56;;;1.40;100.00
61472;BME280;47337;54.068;12.114;2022-11-20T04:39:12;100567.09;;;1.38;100.00
61472;BME280;47337;54.068;12.114;2022-11-20T04:41:39;100563.47;;;1.33;100.00
61472;BME280;47337;54.068;12.114;2022-11-20T04:44:07;100555.56;;;1.30;100.00
61472;BME280;47337;54.068;12.114;2022-11-20T04:46:35;100556.25;;;1.26;100.00
61472;BME280;47337;54.068;12.114;2022-11-20T04:49:01;100557.31;;;1.31;100.00
61472;BME280;47337;54.068;12.114;2022-11-20T04:51:27;100569.44;;;1.32;100.00
61472;BME280;47337;54.068;12.114;2022-11-20T04:53:53;100560.81;;;1.32;100.00
61472;BME280;47337;54.068;12.114;2022-11-20T04:56:18;100561.81;;;1.35;100.00
61472;BME280;47337;54.068;12.114;2022-11-20T04:58:44;100558.53;;;1.39;100.00
61472;BME280;47337;54.068;12.114;2022-11-20T05:01:15;100556.78;;;1.38;100.00
61472;BME280;47337;54.068;12.114;2022-11-20T05:03:44;100560.19;;;1.37;100.00
61472;BME280;47337;54.068;12.114;2022-11-20T05:06:11;100554.00;;;1.34;100.00
61472;BME280;47337;54.068;12.114;2022-11-20T05:08:37;100558.47;;;1.38;100.00
61472;BME280;47337;54.068;12.114;2022-11-20T05:11:05;100559.34;;;1.38;100.00
61472;BME280;47337;54.068;12.114;2022-11-20T05:13:35;100552.97;;;1.30;100.00
61472;BME280;47337;54.068;12.114;2022-11-20T05:16:04;100555.38;;;1.26;100.00
61472;BME280;47337;54.068;12.114;2022-11-20T05:18:30;100551.09;;;1.26;100.00
61472;BME280;47337;54.068;12.114;2022-11-20T05:20:57;100553.84;;;1.31;100.00
61472;BME280;47337;54.068;12.114;2022-11-20T05:23:23;100553.69;;;1.26;100.00
61472;BME280;47337;54.068;12.114;2022-11-20T05:25:55;100550.06;;;1.23;100.00
61472;BME280;47337;54.068;12.114;2022-11-20T05:28:21;100548.16;;;1.19;100.00
61472;BME280;47337;54.068;12.114;2022-11-20T05:30:47;100551.50;;;1.16;100.00
61472;BME280;47337;54.068;12.114;2022-11-20T05:33:13;100548.16;;;1.19;100.00
61472;BME280;47337;54.068;12.114;2022-11-20T05:35:38;100543.88;;;1.19;100.00
61472;BME280;47337;54.068;12.114;2022-11-20T05:38:04;100536.81;;;1.15;100.00
61472;BME280;47337;54.068;12.114;2022-11-20T05:40:29;100537.81;;;1.19;100.00
61472;BME280;47337;54.068;12.114;2022-11-20T05:42:55;100539.31;;;1.14;100.00
61472;BME280;47337;54.068;12.114;2022-11-20T05:45:20;100543.47;;;1.10;100.00
61472;BME280;47337;54.068;12.114;2022-11-20T05:47:45;100539.41;;;1.15;100.00
61472;BME280;47337;54.068;12.114;2022-11-20T05:50:11;100540.22;;;1.14;100.00
61472;BME280;47337;54.068;12.114;2022-11-20T05:52:39;100539.91;;;1.08;100.00
61472;BME280;47337;54.068;12.114;2022-11-20T05:55:05;100533.88;;;1.07;100.00
61472;BME280;47337;54.068;12.114;2022-11-20T05:57:31;100531.44;;;1.10;100.00
61472;BME280;47337;54.068;12.114;2022-11-20T05:59:59;100531.50;;;1.12;100.00
61472;BME280;47337;54.068;12.114;2022-11-20T06:02:25;100530.69;;;1.13;100.00
61472;BME280;47337;54.068;12.114;2022-11-20T06:04:53;100534.22;;;1.15;100.00
61472;BME280;47337;54.068;12.114;2022-11-20T06:07:18;100535.44;;;1.23;100.00
61472;BME280;47337;54.068;12.114;2022-11-20T06:09:43;100529.88;;;1.14;100.00
61472;BME280;47337;54.068;12.114;2022-11-20T06:12:09;100526.66;;;1.00;100.00
61472;BME280;47337;54.068;12.114;2022-11-20T06:14:34;100532.72;;;1.01;100.00
61472;BME280;47337;54.068;12.114;2022-11-20T06:17:00;100524.56;;;0.92;100.00
61472;BME280;47337;54.068;12.114;2022-11-20T06:19:25;100525.16;;;0.86;100.00
61472;BME280;47337;54.068;12.114;2022-11-20T06:21:50;100527.56;;;0.82;100.00
61472;BME280;47337;54.068;12.114;2022-11-20T06:24:18;100534.19;;;0.77;100.00
61472;BME280;47337;54.068;12.114;2022-11-20T06:26:44;100538.16;;;0.68;100.00
61472;BME280;47337;54.068;12.114;2022-11-20T06:29:10;100542.50;;;0.69;100.00
61472;BME280;47337;54.068;12.114;2022-11-20T06:31:37;100537.19;;;0.86;100.00
61472;BME280;47337;54.068;12.114;2022-11-20T06:34:04;100534.59;;;0.86;100.00
61472;BME280;47337;54.068;12.114;2022-11-20T06:36:31;100541.34;;;0.82;100.00
61472;BME280;47337;54.068;12.114;2022-11-20T06:38:57;100540.06;;;0.72;100.00
61472;BME280;47337;54.068;12.114;2022-11-20T06:41:22;100539.09;;;0.70;100.00
61472;BME280;47337;54.068;12.114;2022-11-20T06:43:48;100539.66;;;0.63;100.00
61472;BME280;47337;54.068;12.114;2022-11-20T06:46:15;100531.53;;;0.56;100.00
61472;BME280;47337;54.068;12.114;2022-11-20T06:48:42;100535.94;;;0.58;100.00
61472;BME280;47337;54.068;12.114;2022-11-20T06:51:13;100537.91;;;0.64;100.00
61472;BME280;47337;54.068;12.114;2022-11-20T06:53:38;100540.81;;;0.70;100.00
61472;BME280;47337;54.068;12.114;2022-11-20T06:56:05;100538.56;;;0.78;100.00
61472;BME280;47337;54.068;12.114;2022-11-20T06:58:36;100540.88;;;0.91;100.00
61472;BME280;47337;54.068;12.114;2022-11-20T07:01:06;100551.97;;;0.88;100.00
61472;BME280;47337;54.068;12.114;2022-11-20T07:03:32;100549.44;;;0.90;100.00
61472;BME280;47337;54.068;12.114;2022-11-20T07:05:58;100538.56;;;0.97;100.00
61472;BME280;47337;54.068;12.114;2022-11-20T07:08:27;100548.91;;;0.97;100.00
61472;BME280;47337;54.068;12.114;2022-11-20T07:11:04;100543.72;;;0.97;100.00
61472;BME280;47337;54.068;12.114;2022-11-20T07:13:30;100544.53;;;0.96;100.00
61472;BME280;47337;54.068;12.114;2022-11-20T07:16:00;100540.41;;;0.99;100.00
61472;BME280;47337;54.068;12.114;2022-11-20T07:18:26;100543.31;;;1.07;100.00
61472;BME280;47337;54.068;12.114;2022-11-20T07:20:51;100534.66;;;1.05;100.00
61472;BME280;47337;54.068;12.114;2022-11-20T07:23:17;100536.28;;;1.03;100.00
61472;BME280;47337;54.068;12.114;2022-11-20T07:25:45;100545.97;;;1.08;100.00
61472;BME280;47337;54.068;12.114;2022-11-20T07:28:10;100539.44;;;1.17;100.00
61472;BME280;47337;54.068;12.114;2022-11-20T07:30:36;100539.91;;;1.08;100.00
61472;BME280;47337;54.068;12.114;2022-11-20T07:33:01;100538.28;;;1.10;100.00
61472;BME280;47337;54.068;12.114;2022-11-20T07:35:29;100536.53;;;1.09;100.00
61472;BME280;47337;54.068;12.114;2022-11-20T07:37:55;100534.66;;;1.05;100.00
61472;BME280;47337;54.068;12.114;2022-11-20T07:40:20;100533.94;;;1.09;100.00
61472;BME280;47337;54.068;12.114;2022-11-20T07:42:51;100535.56;;;1.07;100.00
61472;BME280;47337;54.068;12.114;2022-11-20T07:45:21;100536.53;;;1.09;100.00
61472;BME280;47337;54.068;12.114;2022-11-20T07:47:46;100537.63;;;1.14;100.00
61472;BME280;47337;54.068;12.114;2022-11-20T07:50:13;100537.63;;;1.14;100.00
61472;BME280;47337;54.068;12.114;2022-11-20T07:52:41;100529.97;;;1.17;100.00
61472;BME280;47337;54.068;12.114;2022-11-20T07:55:09;100535.50;;;1.25;100.00
61472;BME280;47337;54.068;12.114;2022-11-20T07:57:35;100540.69;;;1.25;100.00
61472;BME280;47337;54.068;12.114;2022-11-20T08:00:03;100540.13;;;1.32;100.00
61472;BME280;47337;54.068;12.114;2022-11-20T08:02:29;100538.63;;;1.37;100.00
61472;BME280;47337;54.068;12.114;2022-11-20T08:04:54;100534.34;;;1.37;100.00
61472;BME280;47337;54.068;12.114;2022-11-20T08:07:20;100535.19;;;1.38;100.00
61472;BME280;47337;54.068;12.114;2022-11-20T08:09:47;100533.06;;;1.48;100.00
61472;BME280;47337;54.068;12.114;2022-11-20T08:12:22;100529.94;;;1.56;100.00
61472;BME280;47337;54.068;12.114;2022-11-20T08:15:07;100526.47;;;1.55;100.00
61472;BME280;47337;54.068;12.114;2022-11-20T08:17:32;100525.09;;;1.63;100.00
61472;BME280;47337;54.068;12.114;2022-11-20T08:19:58;100535.63;;;1.68;100.00
61472;BME280;47337;54.068;12.114;2022-11-20T08:22:23;100540.09;;;1.72;100.00
61472;BME280;47337;54.068;12.114;2022-11-20T08:24:49;100541.94;;;1.74;100.00
61472;BME280;47337;54.068;12.114;2022-11-20T08:27:17;100538.75;;;1.80;100.00
61472;BME280;47337;54.068;12.114;2022-11-20T08:29:43;100541.13;;;1.96;100.00
61472;BME280;47337;54.068;12.114;2022-11-20T08:32:10;100544.66;;;1.98;100.00
61472;BME280;47337;54.068;12.114;2022-11-20T08:34:36;100539.78;;;2.06;100.00
61472;BME280;47337;54.068;12.114;2022-11-20T08:37:03;100538.31;;;2.12;100.00
61472;BME280;47337;54.068;12.114;2022-11-20T08:39:29;100542.22;;;2.24;100.00
61472;BME280;47337;54.068;12.114;2022-11-20T08:41:54;100544.56;;;2.17;100.00
61472;BME280;47337;54.068;12.114;2022-11-20T08:44:19;100542.34;;;2.27;100.00
61472;BME280;47337;54.068;12.114;2022-11-20T08:46:47;100547.06;;;2.37;100.00
61472;BME280;47337;54.068;12.114;2022-11-20T08:49:15;100549.28;;;2.28;100.00
61472;BME280;47337;54.068;12.114;2022-11-20T08:51:43;100548.69;;;2.35;100.00
61472;BME280;47337;54.068;12.114;2022-11-20T08:54:09;100546.78;;;2.29;100.00
61472;BME280;47337;54.068;12.114;2022-11-20T08:56:35;100548.69;;;2.35;100.00
61472;BME280;47337;54.068;12.114;2022-11-20T08:59:02;100544.53;;;2.38;100.00
61472;BME280;47337;54.068;12.114;2022-11-20T09:01:28;100549.06;;;2.44;100.00
61472;BME280;47337;54.068;12.114;2022-11-20T09:03:58;100545.19;;;2.55;100.00
61472;BME280;47337;54.068;12.114;2022-11-20T09:06:25;100545.91;;;2.73;100.00
61472;BME280;47337;54.068;12.114;2022-11-20T09:08:54;100539.56;;;2.89;100.00
61472;BME280;47337;54.068;12.114;2022-11-20T09:11:22;100537.75;;;3.10;100.00
61472;BME280;47337;54.068;12.114;2022-11-20T09:13:48;100537.19;;;3.17;100.00
61472;BME280;47337;54.068;12.114;2022-11-20T09:16:13;100530.63;;;3.28;100.00
61472;BME280;47337;54.068;12.114;2022-11-20T09:18:38;100528.91;;;3.53;100.00
61472;BME280;47337;54.068;12.114;2022-11-20T09:21:09;100521.88;;;3.50;100.00
61472;BME280;47337;54.068;12.114;2022-11-20T09:23:38;100519.88;;;3.67;100.00
61472;BME280;47337;54.068;12.114;2022-11-20T09:26:15;100513.28;;;3.51;100.00
61472;BME280;47337;54.068;12.114;2022-11-20T09:28:41;100505.69;;;3.32;100.00
61472;BME280;47337;54.068;12.114;2022-11-20T09:31:08;100500.50;;;3.32;100.00
61472;BME280;47337;54.068;12.114;2022-11-20T09:33:33;100492.56;;;3.27;100.00
61472;BME280;47337;54.068;12.114;2022-11-20T09:35:59;100491.47;;;3.21;100.00
61472;BME280;47337;54.068;12.114;2022-11-20T09:38:27;100492.34;;;3.21;100.00
61472;BME280;47337;54.068;12.114;2022-11-20T09:40:58;100480.00;;;3.14;100.00
61472;BME280;47337;54.068;12.114;2022-11-20T09:46:57;100474.59;;;3.08;100.00
61472;BME280;47337;54.068;12.114;2022-11-20T09:50:02;100456.81;;;2.93;100.00
61472;BME280;47337;54.068;12.114;2022-11-20T09:55:03;100463.13;;;3.02;100.00
61472;BME280;47337;54.068;12.114;2022-11-20T09:57:36;100462.88;;;3.19;100.00
61472;BME280;47337;54.068;12.114;2022-11-20T10:00:06;100460.56;;;3.52;100.00
61472;BME280;47337;54.068;12.114;2022-11-20T10:29:12;100377.94;;;5.15;100.00
61472;BME280;47337;54.068;12.114;2022-11-20T10:31:56;100371.09;;;5.21;100.00
61472;BME280;47337;54.068;12.114;2022-11-20T10:34:34;100353.81;;;5.23;100.00
61472;BME280;47337;54.068;12.114;2022-11-20T10:37:11;100345.00;;;5.16;100.00
61472;BME280;47337;54.068;12.114;2022-11-20T10:39:50;100348.44;;;5.51;100.00
61472;BME280;47337;54.068;12.114;2022-11-20T10:42:31;100336.91;;;5.40;100.00
61472;BME280;47337;54.068;12.114;2022-11-20T10:45:13;100323.41;;;5.56;100.00
61472;BME280;47337;54.068;12.114;2022-11-20T10:47:40;100326.84;;;5.55;100.00
61472;BME280;47337;54.068;12.114;2022-11-20T10:50:11;100307.38;;;5.38;100.00
61472;BME280;47337;54.068;12.114;2022-11-20T10:53:01;100299.66;;;5.06;100.00
61472;BME280;47337;54.068;12.114;2022-11-20T10:55:38;100290.22;;;4.77;100.00
61472;BME280;47337;54.068;12.114;2022-11-20T11:01:03;100300.91;;;4.88;100.00
61472;BME280;47337;54.068;12.114;2022-11-20T11:03:30;100304.38;;;4.88;100.00
61472;BME280;47337;54.068;12.114;2022-11-20T11:06:07;100306.09;;;4.86;100.00
61472;BME280;47337;54.068;12.114;2022-11-20T11:08:38;100290.44;;;4.85;100.00
61472;BME280;47337;54.068;12.114;2022-11-20T11:11:26;100295.16;;;5.01;100.00
61472;BME280;47337;54.068;12.114;2022-11-20T11:13:53;100287.53;;;5.07;100.00
61472;BME280;47337;54.068;12.114;2022-11-20T11:16:27;100284.81;;;5.02;100.00
61472;BME280;47337;54.068;12.114;2022-11-20T11:19:06;100276.81;;;5.29;100.00
61472;BME280;47337;54.068;12.114;2022-11-20T11:21:32;100274.16;;;5.28;100.00
61472;BME280;47337;54.068;12.114;2022-11-20T11:24:00;100266.03;;;5.14;100.00
61472;BME280;47337;54.068;12.114;2022-11-20T11:26:30;100272.53;;;5.33;100.00
61472;BME280;47337;54.068;12.114;2022-11-20T11:28:58;100270.63;;;5.26;100.00
61472;BME280;47337;54.068;12.114;2022-11-20T11:31:26;100270.84;;;4.99;100.00
61472;BME280;47337;54.068;12.114;2022-11-20T11:33:51;100267.94;;;4.85;100.00
61472;BME280;47337;54.068;12.114;2022-11-20T11:36:22;100260.31;;;4.93;100.00
61472;BME280;47337;54.068;12.114;2022-11-20T11:38:51;100269.81;;;4.92;100.00
61472;BME280;47337;54.068;12.114;2022-11-20T11:41:22;100261.97;;;4.91;100.00
61472;BME280;47337;54.068;12.114;2022-11-20T11:43:54;100264.94;;;5.04;100.00
61472;BME280;47337;54.068;12.114;2022-11-20T11:46:43;100261.53;;;5.07;100.00
61472;BME280;47337;54.068;12.114;2022-11-20T11:54:15;100260.44;;;4.99;100.00
61472;BME280;47337;54.068;12.114;2022-11-20T11:56:44;100253.13;;;4.83;100.00
61472;BME280;47337;54.068;12.114;2022-11-20T11:59:18;100255.84;;;4.87;100.00
61472;BME280;47337;54.068;12.114;2022-11-20T12:01:54;100249.63;;;4.82;100.00
61472;BME280;47337;54.068;12.114;2022-11-20T12:04:44;100247.34;;;4.94;100.00
61472;BME280;47337;54.068;12.114;2022-11-20T12:07:29;100238.13;;;5.07;100.00
61472;BME280;47337;54.068;12.114;2022-11-20T12:09:58;100224.41;;;5.14;100.00
61472;BME280;47337;54.068;12.114;2022-11-20T12:12:30;100222.03;;;5.25;100.00
61472;BME280;47337;54.068;12.114;2022-11-20T12:14:58;100213.69;;;5.38;100.00
61472;BME280;47337;54.068;12.114;2022-11-20T12:17:23;100205.34;;;5.54;100.00
61472;BME280;47337;54.068;12.114;2022-11-20T12:19:51;100204.44;;;5.93;100.00
61472;BME280;47337;54.068;12.114;2022-11-20T12:25:07;100175.25;;;6.10;100.00
61472;BME280;47337;54.068;12.114;2022-11-20T12:30:13;100142.06;;;6.00;100.00
61472;BME280;47337;54.068;12.114;2022-11-20T12:44:36;100140.19;;;5.92;100.00
61472;BME280;47337;54.068;12.114;2022-11-20T12:50:46;100136.06;;;6.06;100.00
61472;BME280;47337;54.068;12.114;2022-11-20T13:01:50;100109.59;;;6.31;100.00
61472;BME280;47337;54.068;12.114;2022-11-20T13:04:31;100116.16;;;6.08;100.00
61472;BME280;47337;54.068;12.114;2022-11-20T13:07:01;100112.38;;;5.91;100.00
61472;BME280;47337;54.068;12.114;2022-11-20T13:09:33;100117.66;;;5.50;100.00
61472;BME280;47337;54.068;12.114;2022-11-20T13:15:22;100138.16;;;5.36;100.00
61472;BME280;47337;54.068;12.114;2022-11-20T13:17:39;100145.72;;;4.85;100.00
61472;BME280;47337;54.068;12.114;2022-11-20T13:20:14;100159.41;;;4.76;100.00
61472;BME280;47337;54.068;12.114;2022-11-20T13:22:48;100179.78;;;4.96;100.00
61472;BME280;47337;54.068;12.114;2022-11-20T13:25:37;100188.75;;;5.08;100.00
61472;BME280;47337;54.068;12.114;2022-11-20T13:30:48;100172.13;;;4.66;100.00
61472;BME280;47337;54.068;12.114;2022-11-20T13:33:25;100192.63;;;4.54;100.00
61472;BME280;47337;54.068;12.114;2022-11-20T13:36:04;100178.31;;;4.36;100.00
61472;BME280;47337;54.068;12.114;2022-11-20T13:38:47;100192.69;;;3.91;100.00
61472;BME280;47337;54.068;12.114;2022-11-20T13:41:24;100196.56;;;3.75;100.00
61472;BME280;47337;54.068;12.114;2022-11-20T13:46:36;100237.53;;;3.27;100.00
61472;BME280;47337;54.068;12.114;2022-11-20T13:49:07;100243.59;;;3.01;100.00
61472;BME280;47337;54.068;12.114;2022-11-20T13:51:43;100258.56;;;3.09;100.00
61472;BME280;47337;54.068;12.114;2022-11-20T13:57:25;100273.72;;;2.97;100.00
61472;BME280;47337;54.068;12.114;2022-11-20T14:02:33;100282.66;;;2.80;100.00
61472;BME280;47337;54.068;12.114;2022-11-20T14:05:00;100295.44;;;2.74;100.00
61472;BME280;47337;54.068;12.114;2022-11-20T14:07:39;100285.72;;;2.68;100.00
61472;BME280;47337;54.068;12.114;2022-11-20T14:10:19;100292.97;;;2.78;100.00
61472;BME280;47337;54.068;12.114;2022-11-20T14:12:46;100288.78;;;2.82;100.00
61472;BME280;47337;54.068;12.114;2022-11-20T14:15:30;100289.13;;;2.67;100.00
61472;BME280;47337;54.068;12.114;2022-11-20T14:17:56;100285.59;;;2.65;100.00
61472;BME280;47337;54.068;12.114;2022-11-20T14:20:27;100280.53;;;2.68;100.00
61472;BME280;47337;54.068;12.114;2022-11-20T14:22:54;100278.72;;;2.66;100.00